La Cassidaigne — FT7120 — position and weather

sailwx.info

Track history (hours):
 
Tides and Currents Weather Stations Pressure Air Temp Water Temp Dewpoint Dewpoint Depression Visibility Wind Speed Wind Dir Waves Ship Positions

La Cassidaigne

Last reported at 2016-Jun-24 19:14 UTC. Time now 2016-Jun-25 05:16 UTC.
Position N 43°24' E 004°59'.

Length 16 m; draft 1 m.

Type: Other ship. MMSI: 227005760.

Date/timePositionNaut miles runAvg speedWind from/ knotsBaromVisibWave heightAir tempDewpointWater temp
2016-Jun-24 19:14N 43°24' E 004°59'0 0.3
2016-Jun-24 17:19N 43°24' E 004°58'1 0.3
2016-Jun-24 15:10N 43°24' E 004°59'0 0.0
2016-Jun-24 14:33N 43°24' E 004°59'0 0.0
2016-Jun-24 13:33N 43°24' E 004°59'0 0.0
2016-Jun-24 12:33N 43°24' E 004°59'0 0.1
2016-Jun-24 11:33N 43°24' E 004°59'4 3.4
2016-Jun-24 10:23N 43°21' E 004°56'3 2.3
2016-Jun-24 09:14N 43°21' E 004°60'4 2.2
2016-Jun-24 07:33N 43°24' E 004°59'0 0.0
2016-Jun-24 06:34N 43°24' E 004°59'0 0.0
2016-Jun-23 17:25N 43°24' E 004°59'0 0.0
2016-Jun-23 16:33N 43°24' E 004°59'1 0.6
2016-Jun-23 15:18N 43°24' E 004°58'1 0.9
2016-Jun-23 14:33N 43°24' E 004°59'0 0.0
2016-Jun-23 13:33N 43°24' E 004°59'1 0.5
2016-Jun-23 12:24N 43°24' E 004°59'1 0.5
2016-Jun-23 11:21N 43°23' E 004°59'1 1.3
2016-Jun-23 10:33N 43°24' E 004°59'1 0.8
2016-Jun-23 09:29N 43°24' E 004°58'2 0.8
2016-Jun-23 07:12N 43°22' E 004°59'2 0.2
2016-Jun-22 16:34N 43°24' E 004°59'0 0.0
2016-Jun-22 15:34N 43°24' E 004°59'0 0.0
2016-Jun-22 14:33N 43°24' E 004°59'0 0.0
2016-Jun-22 13:33N 43°24' E 004°59'1 1.0
2016-Jun-22 12:27N 43°23' E 004°58'1 1.3
2016-Jun-22 11:33N 43°24' E 004°59'0 0.0
2016-Jun-22 10:33N 43°24' E 004°59'0 0.0
2016-Jun-22 09:34N 43°24' E 004°59'0 0.0
2016-Jun-22 08:16N 43°24' E 004°59'0 0.0
2016-Jun-22 07:33N 43°24' E 004°59'3 2.7
2016-Jun-22 06:33N 43°21' E 004°60'3 0.4
2016-Jun-21 23:25N 43°24' E 004°59'3 3.6
2016-Jun-21 22:33N 43°21' E 004°60'3 3.1
2016-Jun-21 21:33N 43°24' E 004°59'0 0.0
2016-Jun-21 20:33N 43°24' E 004°59'0 0.0
2016-Jun-21 19:33N 43°24' E 004°59'0 0.2
2016-Jun-21 18:12N 43°24' E 004°59'0 0.5
2016-Jun-21 17:33N 43°24' E 004°59'0 0.0
2016-Jun-21 16:33N 43°24' E 004°59'0 0.2
2016-Jun-21 15:33N 43°24' E 004°59'0 0.2
2016-Jun-21 14:33N 43°24' E 004°59'2 1.6
2016-Jun-21 13:33N 43°23' E 004°59'2 1.6
2016-Jun-21 12:33N 43°24' E 004°59'2 2.2
2016-Jun-21 11:33N 43°22' E 004°59'1 1.2
2016-Jun-21 10:33N 43°23' E 004°59'1 1.0
2016-Jun-21 09:33N 43°24' E 004°59'2 1.6
2016-Jun-21 08:33N 43°23' E 004°59'2 1.6
2016-Jun-21 07:33N 43°24' E 004°59'3 1.5
2016-Jun-21 05:33N 43°21' E 004°58'4 3.2
2016-Jun-21 04:10N 43°24' E 005°03'3 0.3
2016-Jun-20 17:18N 43°24' E 004°59'0 0.2
2016-Jun-20 16:33N 43°24' E 004°59'4 3.5
2016-Jun-20 15:33N 43°21' E 005°00'4 3.6
2016-Jun-20 14:34N 43°24' E 004°59'0 0.0
2016-Jun-20 13:33N 43°24' E 004°59'0 0.0
2016-Jun-20 12:33N 43°24' E 004°59'0 0.0
2016-Jun-20 10:04N 43°24' E 004°59'0 0.7
2016-Jun-20 09:33N 43°24' E 004°59'0 0.3
2016-Jun-20 08:33N 43°24' E 004°59'3 3.2
2016-Jun-20 07:28N 43°21' E 004°58'3 0.2
2016-Jun-19 12:09N 43°24' E 004°59'3 2.8
2016-Jun-19 11:12N 43°22' E 004°60'3 4.0
2016-Jun-19 10:33N 43°24' E 004°59'1 0.6
2016-Jun-19 09:33N 43°24' E 004°59'1 0.6
2016-Jun-19 08:33N 43°24' E 004°59'0 0.0
2016-Jun-19 07:33N 43°24' E 004°59'0 0.4
2016-Jun-19 06:33N 43°24' E 004°59'0 0.0
2016-Jun-18 18:20N 43°24' E 004°59'0 0.0
2016-Jun-18 17:34N 43°24' E 004°59'0 0.0
2016-Jun-18 16:33N 43°24' E 004°59'5 5.3
2016-Jun-18 15:33N 43°19' E 004°56'3 3.4
2016-Jun-18 14:32N 43°21' E 005°00'2 0.3
2016-Jun-18 07:33N 43°21' E 004°57'3 2.7
2016-Jun-18 06:31N 43°19' E 005°01'5 0.4
2016-Jun-17 17:10N 43°24' E 004°59'0 0.0
2016-Jun-17 07:33N 43°24' E 004°59'0 0.3
2016-Jun-17 06:33N 43°24' E 004°59'0 0.0
2016-Jun-16 19:33N 43°24' E 004°59'0 0.1
2016-Jun-16 18:33N 43°24' E 004°59'0 0.0
2016-Jun-16 17:33N 43°24' E 004°59'0 0.0
2016-Jun-16 16:33N 43°24' E 004°59'0 0.0
2016-Jun-16 15:33N 43°24' E 004°59'1 1.2
2016-Jun-16 14:33N 43°23' E 004°59'1 1.1
2016-Jun-16 13:33N 43°24' E 004°59'3 2.5
2016-Jun-16 12:33N 43°22' E 004°57'1 0.7
2016-Jun-16 11:33N 43°23' E 004°57'2 1.9
2016-Jun-16 10:33N 43°24' E 004°59'0 0.0
2016-Jun-16 09:34N 43°24' E 004°59'0 0.0
2016-Jun-16 08:33N 43°24' E 004°59'5 4.1
2016-Jun-16 07:23N 43°20' E 005°01'3 3.9
2016-Jun-16 06:33N 43°20' E 004°57'5 5.0
2016-Jun-16 05:33N 43°24' E 004°59'0 0.0
2016-Jun-16 04:33N 43°24' E 004°59'0 0.0
2016-Jun-16 03:33N 43°24' E 004°59'0 0.0
2016-Jun-16 02:33N 43°24' E 004°59'0 0.0
2016-Jun-16 01:34N 43°24' E 004°59'1 0.1
2016-Jun-15 17:33N 43°24' E 004°59'1 0.7
2016-Jun-15 16:33N 43°24' E 004°59'0 0.0
2016-Jun-15 15:33N 43°24' E 004°59'0 0.0
2016-Jun-15 14:33N 43°24' E 004°59'0 0.0
2016-Jun-15 13:33N 43°24' E 004°59'0 0.0
2016-Jun-15 12:33N 43°24' E 004°59'1 1.4
2016-Jun-15 11:31N 43°24' E 004°57'1 1.5
2016-Jun-15 10:33N 43°24' E 004°59'0 0.3
2016-Jun-15 09:33N 43°24' E 004°59'0 0.0
2016-Jun-15 08:33N 43°24' E 004°59'0 0.0
2016-Jun-15 07:34N 43°24' E 004°59'0 0.0
2016-Jun-15 06:33N 43°24' E 004°59'1 1.5
2016-Jun-15 05:33N 43°24' E 004°57'  
Track history (hours):
 
Tides and Currents Weather Stations Pressure Air Temp Water Temp Dewpoint Dewpoint Depression Visibility Wind Speed Wind Dir Waves Ship Positions

La Cassidaigne

Last reported at 2016-Jun-24 19:14 UTC. Time now 2016-Jun-25 05:16 UTC.
Position N 43°24' E 004°59'.

Length 16 m; draft 1 m.

Type: Other ship. MMSI: 227005760.

Date/timePositionNaut miles runAvg speedWind from/ knotsBaromVisibWave heightAir tempDewpointWater temp
2016-Jun-24 19:14N 43°24' E 004°59'0 0.3
2016-Jun-24 17:19N 43°24' E 004°58'1 0.3
2016-Jun-24 15:10N 43°24' E 004°59'0 0.0
2016-Jun-24 14:33N 43°24' E 004°59'0 0.0
2016-Jun-24 13:33N 43°24' E 004°59'0 0.0
2016-Jun-24 12:33N 43°24' E 004°59'0 0.1
2016-Jun-24 11:33N 43°24' E 004°59'4 3.4
2016-Jun-24 10:23N 43°21' E 004°56'3 2.3
2016-Jun-24 09:14N 43°21' E 004°60'4 2.2
2016-Jun-24 07:33N 43°24' E 004°59'0 0.0
2016-Jun-24 06:34N 43°24' E 004°59'0 0.0
2016-Jun-23 17:25N 43°24' E 004°59'0 0.0
2016-Jun-23 16:33N 43°24' E 004°59'1 0.6
2016-Jun-23 15:18N 43°24' E 004°58'1 0.9
2016-Jun-23 14:33N 43°24' E 004°59'0 0.0
2016-Jun-23 13:33N 43°24' E 004°59'1 0.5
2016-Jun-23 12:24N 43°24' E 004°59'1 0.5
2016-Jun-23 11:21N 43°23' E 004°59'1 1.3
2016-Jun-23 10:33N 43°24' E 004°59'1 0.8
2016-Jun-23 09:29N 43°24' E 004°58'2 0.8
2016-Jun-23 07:12N 43°22' E 004°59'2 0.2
2016-Jun-22 16:34N 43°24' E 004°59'0 0.0
2016-Jun-22 15:34N 43°24' E 004°59'0 0.0
2016-Jun-22 14:33N 43°24' E 004°59'0 0.0
2016-Jun-22 13:33N 43°24' E 004°59'1 1.0
2016-Jun-22 12:27N 43°23' E 004°58'1 1.3
2016-Jun-22 11:33N 43°24' E 004°59'0 0.0
2016-Jun-22 10:33N 43°24' E 004°59'0 0.0
2016-Jun-22 09:34N 43°24' E 004°59'0 0.0
2016-Jun-22 08:16N 43°24' E 004°59'0 0.0
2016-Jun-22 07:33N 43°24' E 004°59'3 2.7
2016-Jun-22 06:33N 43°21' E 004°60'3 0.4
2016-Jun-21 23:25N 43°24' E 004°59'3 3.6
2016-Jun-21 22:33N 43°21' E 004°60'3 3.1
2016-Jun-21 21:33N 43°24' E 004°59'0 0.0
2016-Jun-21 20:33N 43°24' E 004°59'0 0.0
2016-Jun-21 19:33N 43°24' E 004°59'0 0.2
2016-Jun-21 18:12N 43°24' E 004°59'0 0.5
2016-Jun-21 17:33N 43°24' E 004°59'0 0.0
2016-Jun-21 16:33N 43°24' E 004°59'0 0.2
2016-Jun-21 15:33N 43°24' E 004°59'0 0.2
2016-Jun-21 14:33N 43°24' E 004°59'2 1.6
2016-Jun-21 13:33N 43°23' E 004°59'2 1.6
2016-Jun-21 12:33N 43°24' E 004°59'2 2.2
2016-Jun-21 11:33N 43°22' E 004°59'1 1.2
2016-Jun-21 10:33N 43°23' E 004°59'1 1.0
2016-Jun-21 09:33N 43°24' E 004°59'2 1.6
2016-Jun-21 08:33N 43°23' E 004°59'2 1.6
2016-Jun-21 07:33N 43°24' E 004°59'3 1.5
2016-Jun-21 05:33N 43°21' E 004°58'4 3.2
2016-Jun-21 04:10N 43°24' E 005°03'3 0.3
2016-Jun-20 17:18N 43°24' E 004°59'0 0.2
2016-Jun-20 16:33N 43°24' E 004°59'4 3.5
2016-Jun-20 15:33N 43°21' E 005°00'4 3.6
2016-Jun-20 14:34N 43°24' E 004°59'0 0.0
2016-Jun-20 13:33N 43°24' E 004°59'0 0.0
2016-Jun-20 12:33N 43°24' E 004°59'0 0.0
2016-Jun-20 10:04N 43°24' E 004°59'0 0.7
2016-Jun-20 09:33N 43°24' E 004°59'0 0.3
2016-Jun-20 08:33N 43°24' E 004°59'3 3.2
2016-Jun-20 07:28N 43°21' E 004°58'3 0.2
2016-Jun-19 12:09N 43°24' E 004°59'3 2.8
2016-Jun-19 11:12N 43°22' E 004°60'3 4.0
2016-Jun-19 10:33N 43°24' E 004°59'1 0.6
2016-Jun-19 09:33N 43°24' E 004°59'1 0.6
2016-Jun-19 08:33N 43°24' E 004°59'0 0.0
2016-Jun-19 07:33N 43°24' E 004°59'0 0.4
2016-Jun-19 06:33N 43°24' E 004°59'0 0.0
2016-Jun-18 18:20N 43°24' E 004°59'0 0.0
2016-Jun-18 17:34N 43°24' E 004°59'0 0.0
2016-Jun-18 16:33N 43°24' E 004°59'5 5.3
2016-Jun-18 15:33N 43°19' E 004°56'3 3.4
2016-Jun-18 14:32N 43°21' E 005°00'2 0.3
2016-Jun-18 07:33N 43°21' E 004°57'3 2.7
2016-Jun-18 06:31N 43°19' E 005°01'5 0.4
2016-Jun-17 17:10N 43°24' E 004°59'0 0.0
2016-Jun-17 07:33N 43°24' E 004°59'0 0.3
2016-Jun-17 06:33N 43°24' E 004°59'0 0.0
2016-Jun-16 19:33N 43°24' E 004°59'0 0.1
2016-Jun-16 18:33N 43°24' E 004°59'0 0.0
2016-Jun-16 17:33N 43°24' E 004°59'0 0.0
2016-Jun-16 16:33N 43°24' E 004°59'0 0.0
2016-Jun-16 15:33N 43°24' E 004°59'1 1.2
2016-Jun-16 14:33N 43°23' E 004°59'1 1.1
2016-Jun-16 13:33N 43°24' E 004°59'3 2.5
2016-Jun-16 12:33N 43°22' E 004°57'1 0.7
2016-Jun-16 11:33N 43°23' E 004°57'2 1.9
2016-Jun-16 10:33N 43°24' E 004°59'0 0.0
2016-Jun-16 09:34N 43°24' E 004°59'0 0.0
2016-Jun-16 08:33N 43°24' E 004°59'5 4.1
2016-Jun-16 07:23N 43°20' E 005°01'3 3.9
2016-Jun-16 06:33N 43°20' E 004°57'5 5.0
2016-Jun-16 05:33N 43°24' E 004°59'0 0.0
2016-Jun-16 04:33N 43°24' E 004°59'0 0.0
2016-Jun-16 03:33N 43°24' E 004°59'0 0.0
2016-Jun-16 02:33N 43°24' E 004°59'0 0.0
2016-Jun-16 01:34N 43°24' E 004°59'1 0.1
2016-Jun-15 17:33N 43°24' E 004°59'1 0.7
2016-Jun-15 16:33N 43°24' E 004°59'0 0.0
2016-Jun-15 15:33N 43°24' E 004°59'0 0.0
2016-Jun-15 14:33N 43°24' E 004°59'0 0.0
2016-Jun-15 13:33N 43°24' E 004°59'0 0.0
2016-Jun-15 12:33N 43°24' E 004°59'1 1.4
2016-Jun-15 11:31N 43°24' E 004°57'1 1.5
2016-Jun-15 10:33N 43°24' E 004°59'0 0.3
2016-Jun-15 09:33N 43°24' E 004°59'0 0.0
2016-Jun-15 08:33N 43°24' E 004°59'0 0.0
2016-Jun-15 07:34N 43°24' E 004°59'0 0.0
2016-Jun-15 06:33N 43°24' E 004°59'1 1.5
2016-Jun-15 05:33N 43°24' E 004°57'  

Dump ship's entire track history